AirNav   Everest Fuels
 
 1076 users online  

3FA5 Richard Kohler Heliport
Osteen, Florida, USA

GOING TO OSTEEN?


FAA INFORMATION EFFECTIVE 22 APRIL 2021

Location

FAA Identifier: 3FA5
Lat/Long: 28-46-50.0000N 081-06-55.0000W
28-46.833333N 081-06.916667W
28.7805556,-81.1152778
(estimated)
Elevation: 25 ft. / 8 m (estimated)
From city: 4 miles W of OSTEEN, FL
Time zone: UTC -4 (UTC -5 during Standard Time)
Zip code: 32732

Heliport Operations

Heliport use: Private use. Permission required prior to landing
Activation date: 05/2010
Control tower: no
ARTCC: JACKSONVILLE CENTER
FSS: SAINT PETERSBURG FLIGHT SERVICE STATION
Attendance: IREG
Wind indicator: lighted
Segmented circle: no
Lights: SS-SR
Beacon: white-green-yellow (heliport)

Heliport Communications

WX ASOS at SFB (6 nm W): 125.975 (407-321-9384)
WX AWOS-3 at X21 (18 nm SE): 119.725 (321-385-0383)
WX ASOS at ORL (18 nm SW): 127.25 (407-658-6753)
WX AWOS-3 at EVB (19 nm NE): 124.625 (386-409-4705)
WX AWOS-3 at DED (19 nm NW): 119.575 (386-740-5811)

Nearby radio navigation aids

VOR radial/distance  VOR name  Freq  Var
ORLr039/18.4ORLANDO VORTAC112.2000E
OMNr180/31.4ORMOND BEACH VORTAC112.6000E

Heliport Services

Runway Information

Helipad H1

Dimensions: 40 x 40 ft. / 12 x 12 m
Surface: concrete, in good condition
Runway edge lights: PERI
Runway edge markings: YELLOW "H" IN CENTER OF PAD.
Traffic pattern: leftleft
Markings: NSTD
Obstructions: bldg
20 FT BLDG 100 FT N OF PAD.

Heliport Ownership and Management from official FAA records

Ownership: Privately-owned
Owner: RICHARD KOHLER
1035 TIFFORD LN
OSTEEN, FL 32764
Phone 407-402-1992
Manager: RICHARD KOHLER
PO BOX 530152
MIAMI SHORES, FL 33153
Phone 305-899-8588

Additional Remarks

FOR CD CTC ORLANDO APCH AT 407-852-7553.

Instrument Procedures

There are no published instrument procedures at 3FA5.

Some nearby airports with instrument procedures:

KSFB - Orlando Sanford International Airport (6 nm W)
X50 - Massey Ranch Airpark (16 nm NE)
X21 - Arthur Dunn Air Park (18 nm SE)
KORL - Executive Airport (18 nm SW)
KEVB - New Smyrna Beach Municipal Airport (19 nm NE)
KDED - DeLand Municipal Airport-Sidney H Taylor Field (19 nm NW)
 
Loc | Ops | Rwys | IFR | FBO | Links
Com | Nav | Svcs | Stats | Notes


 
Aerial photo
No photo
 
Sectional chart

 
Airport distance calculator
Flying to Richard Kohler Heliport? Find the distance to fly.

From to 3FA5

Sunrise and sunset
Times for 17-May-2021
 Local
(UTC-4)
 Zulu
(UTC)
Morning civil twilight06:0710:07
Sunrise06:3310:33
Sunset20:0900:09
Evening civil twilight20:3400:34

Current date and time
Zulu (UTC)  18-May-2021 01:21:36
Local (UTC-4)  17-May-2021 21:21:36
 
METAR
KSFB 
5nm W 
180053Z 11005KT 10SM FEW035 BKN055 OVC065 22/17 A3014 RMK AO2 SLP206 T02220172
KORL 
18nm SW 
180053Z 07008KT 10SM FEW042 FEW050 BKN060 24/18 A3014 RMK AO2 SLP210 T02390178
KEVB 
19nm NE 
180050Z 11011KT 10SM SCT055 23/17 A3014
KDED 
19nm NW 
180055Z AUTO 08006KT 10SM CLR 22/17 A3016 RMK AO2 T02190168
TAF
KSFB 
5nm W 
171742Z 1718/1818 09014G22KT P6SM BKN045 BKN060 FM180200 08004KT P6SM FEW050 BKN250 FM181600 08017G24KT P6SM SCT045 BKN250
NOTAMs
Click for the latest NOTAMs
NOTAMs are issued by the DoD/FAA and will open in a separate window not controlled by AirNav.

 

 
 

Would you like to see your business listed on this page?

 If your business provides an interesting product or service to pilots, flight crews, aircraft, or users of the Richard Kohler Heliport, you should consider listing it here.  To start the listing process, click on the button below
 
Add a business
 

Other Pages about Richard Kohler Heliport

Update a link
 
Copyright © AirNav, LLC. All rights reserved. Privacy Policy  Contact